Mount Vernon, Missouri
Current Conditions -  °F | °C
As of 8:35 AM on Saturday 25 Oct 2014 (Local Time) from KHFJ Reporting Station
Clear Clear  
Wind Chill: 61°   Ceiling: Unl
Heat Index: 61°   Visibility: 7mi
Dew Point: 59°   Wind: 5mph
Humidity: 94%   Direction: 210°SSW
Pressure: 30.1"   Gusts: NA
Location:  37.1°N, 93.82°W
Report Text: KHFJ 251335Z AUTO 21004KT 7SM CLR 16/15 A3010 RMK AO2
Loading
Personal Weather Stations






























Interactive Weather Map New forecast layout! Learn more

10-Day Weather Forecast

Advertisements
Track Severe Weather on mobile